createdAt,value
2023-05-25T00:02:06.785Z,16.24
2023-05-25T00:04:35.477Z,16.26
2023-05-25T00:07:03.395Z,16.26
2023-05-25T00:09:30.939Z,16.29
2023-05-25T00:11:59.692Z,16.29
2023-05-25T00:14:27.176Z,16.30
2023-05-25T00:16:55.338Z,16.31
2023-05-25T00:19:25.009Z,16.32
2023-05-25T00:21:52.522Z,16.32
2023-05-25T00:24:20.026Z,16.33
2023-05-25T00:26:47.538Z,16.33
2023-05-25T00:29:15.024Z,16.34
2023-05-25T00:31:42.586Z,16.34
2023-05-25T00:34:10.124Z,16.35
2023-05-25T00:36:38.969Z,16.36
2023-05-25T00:39:06.454Z,16.36
2023-05-25T00:41:34.850Z,16.37
2023-05-25T00:44:02.432Z,16.37
2023-05-25T00:46:30.547Z,16.37
2023-05-25T00:48:58.059Z,16.38
2023-05-25T00:51:26.578Z,16.39
2023-05-25T00:53:55.482Z,16.39
2023-05-25T00:56:25.019Z,16.41
2023-05-25T00:58:54.265Z,16.41
2023-05-25T01:01:23.205Z,16.42
2023-05-25T01:03:53.980Z,16.42
2023-05-25T01:06:22.661Z,16.42
2023-05-25T01:08:52.894Z,16.43
2023-05-25T01:11:25.648Z,16.44
2023-05-25T01:13:54.307Z,16.44
2023-05-25T01:16:22.026Z,16.45
2023-05-25T01:18:52.649Z,16.45
2023-05-25T01:21:23.933Z,16.45
2023-05-25T01:23:53.868Z,16.45
2023-05-25T01:26:22.654Z,16.45
2023-05-25T01:28:52.426Z,16.45
2023-05-25T01:31:21.844Z,16.46
2023-05-25T01:33:50.936Z,16.46
2023-05-25T01:36:18.706Z,16.46
2023-05-25T01:38:47.620Z,16.47
2023-05-25T01:41:15.086Z,16.47
2023-05-25T01:43:42.647Z,16.47
2023-05-25T01:46:13.204Z,16.46
2023-05-25T01:48:44.069Z,16.47
2023-05-25T01:51:18.134Z,16.47
2023-05-25T01:53:52.301Z,16.48
2023-05-25T01:56:20.617Z,16.47
2023-05-25T01:58:48.528Z,16.47
2023-05-25T02:01:16.761Z,16.47
2023-05-25T02:03:45.225Z,16.48
2023-05-25T02:06:12.780Z,16.48
2023-05-25T02:08:40.445Z,16.49
2023-05-25T02:11:09.265Z,16.48
2023-05-25T02:13:37.891Z,16.48
2023-05-25T02:16:05.527Z,16.49
2023-05-25T02:18:34.257Z,16.48
2023-05-25T02:21:01.762Z,16.48
2023-05-25T02:23:29.288Z,16.49
2023-05-25T02:25:56.737Z,16.49
2023-05-25T02:28:25.842Z,16.49
2023-05-25T02:30:53.350Z,16.51
2023-05-25T02:33:20.860Z,16.50
2023-05-25T02:35:48.360Z,16.50
2023-05-25T02:38:15.967Z,16.50
2023-05-25T02:40:43.427Z,16.50
2023-05-25T02:43:11.054Z,16.50
2023-05-25T02:45:39.842Z,16.52
2023-05-25T02:48:07.377Z,16.52
2023-05-25T02:50:34.933Z,16.51
2023-05-25T02:53:02.502Z,16.52
2023-05-25T02:55:30.029Z,16.52
2023-05-25T02:57:58.225Z,16.52
2023-05-25T03:00:25.731Z,16.52
2023-05-25T03:02:54.635Z,16.52
2023-05-25T03:05:22.263Z,16.53
2023-05-25T03:07:49.760Z,16.53
2023-05-25T03:10:17.212Z,16.54
2023-05-25T03:12:44.720Z,16.52
2023-05-25T03:15:13.184Z,16.54
2023-05-25T03:17:40.885Z,16.53
2023-05-25T03:20:12.019Z,16.52
2023-05-25T03:22:39.528Z,16.53
2023-05-25T03:25:07.554Z,16.52
2023-05-25T03:27:35.112Z,16.54
2023-05-25T03:30:02.655Z,16.54
2023-05-25T03:32:30.174Z,16.54
2023-05-25T03:34:57.646Z,16.52
2023-05-25T03:37:26.504Z,16.54
2023-05-25T03:39:54.007Z,16.54
2023-05-25T03:42:21.491Z,16.54
2023-05-25T03:44:48.993Z,16.53
2023-05-25T03:47:16.468Z,16.54
2023-05-25T03:49:43.984Z,16.52
2023-05-25T03:52:11.484Z,16.54
2023-05-25T03:54:40.300Z,16.55
2023-05-25T03:57:07.840Z,16.54
2023-05-25T03:59:35.584Z,16.55
2023-05-25T04:02:03.059Z,16.54
2023-05-25T04:04:30.615Z,16.55
2023-05-25T04:06:58.097Z,16.56
2023-05-25T04:09:25.680Z,16.56
2023-05-25T04:11:54.532Z,16.56
2023-05-25T04:14:21.992Z,16.57
2023-05-25T04:16:49.521Z,16.58
2023-05-25T04:19:17.096Z,16.58
2023-05-25T04:21:44.574Z,16.58
2023-05-25T04:24:12.049Z,16.59
2023-05-25T04:26:40.330Z,16.59
2023-05-25T04:29:10.449Z,16.60
2023-05-25T04:31:39.177Z,16.59
2023-05-25T04:34:06.719Z,16.60
2023-05-25T04:36:34.199Z,16.59
2023-05-25T04:39:04.233Z,16.59
2023-05-25T04:41:31.710Z,16.59
2023-05-25T04:44:09.008Z,16.59
2023-05-25T04:46:39.103Z,16.59
2023-05-25T04:49:08.351Z,16.60
2023-05-25T04:51:36.983Z,16.59
2023-05-25T04:54:04.630Z,16.59
2023-05-25T04:56:32.113Z,16.59
2023-05-25T04:58:59.638Z,16.58
2023-05-25T05:01:27.320Z,16.58
2023-05-25T05:03:56.333Z,16.59
2023-05-25T05:06:25.707Z,16.59
2023-05-25T05:08:53.213Z,16.57
2023-05-25T05:11:20.718Z,16.58
2023-05-25T05:13:48.211Z,16.58
2023-05-25T05:16:15.843Z,16.58
2023-05-25T05:18:43.386Z,16.58
2023-05-25T05:21:12.479Z,16.57
2023-05-25T05:23:39.937Z,16.58
2023-05-25T05:26:11.021Z,16.58
2023-05-25T05:28:38.662Z,16.59
2023-05-25T05:31:06.846Z,16.58
2023-05-25T05:33:34.472Z,16.59
2023-05-25T05:36:02.734Z,16.59
2023-05-25T05:38:31.577Z,16.59
2023-05-25T05:40:59.440Z,16.58
2023-05-25T05:43:26.966Z,16.59
2023-05-25T05:45:54.491Z,16.59
2023-05-25T05:48:22.062Z,16.60
2023-05-25T05:50:49.675Z,16.60
2023-05-25T05:53:17.338Z,16.60
2023-05-25T05:55:48.488Z,16.61
2023-05-25T05:58:17.746Z,16.61
2023-05-25T06:00:45.237Z,16.60
2023-05-25T06:03:12.763Z,16.60
2023-05-25T06:05:40.315Z,16.60
2023-05-25T06:08:09.320Z,16.60
2023-05-25T06:10:36.798Z,16.61
2023-05-25T06:13:07.356Z,16.60
2023-05-25T06:15:35.149Z,16.60
2023-05-25T06:18:03.257Z,16.60
2023-05-25T06:20:30.980Z,16.60
2023-05-25T06:22:58.495Z,16.59
2023-05-25T06:25:26.026Z,16.60
2023-05-25T06:27:53.487Z,16.59
2023-05-25T06:30:22.384Z,16.60
2023-05-25T06:32:49.907Z,16.58
2023-05-25T06:35:19.806Z,16.60
2023-05-25T06:37:47.869Z,16.59
2023-05-25T06:40:15.384Z,16.59
2023-05-25T06:42:42.837Z,16.60
2023-05-25T06:45:11.107Z,16.58
2023-05-25T06:47:40.055Z,16.58
2023-05-25T06:50:08.324Z,16.59
2023-05-25T06:52:35.826Z,16.59
2023-05-25T06:55:03.924Z,16.59
2023-05-25T06:57:31.420Z,16.60
2023-05-25T06:59:58.928Z,16.59
2023-05-25T07:02:26.500Z,16.60
2023-05-25T07:04:55.384Z,16.59
2023-05-25T07:07:23.300Z,16.62
2023-05-25T07:09:51.068Z,16.61
2023-05-25T07:12:18.581Z,16.62
2023-05-25T07:14:48.154Z,16.63
2023-05-25T07:17:15.760Z,16.63
2023-05-25T07:19:43.441Z,16.64
2023-05-25T07:22:12.485Z,16.64
2023-05-25T07:24:39.927Z,16.65
2023-05-25T07:27:08.210Z,16.65
2023-05-25T07:29:35.708Z,16.65
2023-05-25T07:32:03.171Z,16.65
2023-05-25T07:34:30.642Z,16.65
2023-05-25T07:36:58.131Z,16.65
2023-05-25T07:39:27.107Z,16.66
2023-05-25T07:41:54.585Z,16.65
2023-05-25T07:44:22.068Z,16.65
2023-05-25T07:46:49.554Z,16.64
2023-05-25T07:49:17.353Z,16.65
2023-05-25T07:51:45.625Z,16.65
2023-05-25T07:54:13.201Z,16.65
2023-05-25T07:56:42.511Z,16.64
2023-05-25T07:59:10.124Z,16.65
2023-05-25T08:01:38.933Z,16.65
2023-05-25T08:04:06.659Z,16.65
2023-05-25T08:06:34.383Z,16.65
2023-05-25T08:09:01.965Z,16.64
2023-05-25T08:11:29.450Z,16.65
2023-05-25T08:14:00.175Z,16.64
2023-05-25T08:16:27.933Z,16.63
2023-05-25T08:18:55.540Z,16.64
2023-05-25T08:23:51.293Z,16.65
2023-05-25T08:26:34.888Z,16.64
2023-05-25T08:29:07.820Z,16.64
2023-05-25T08:31:35.796Z,16.65
2023-05-25T08:34:03.430Z,16.64
2023-05-25T08:36:34.047Z,16.65
2023-05-25T08:39:01.677Z,16.65
2023-05-25T08:41:29.243Z,16.64
2023-05-25T08:43:57.037Z,16.65
2023-05-25T08:46:29.942Z,16.65
2023-05-25T08:49:00.011Z,16.66
2023-05-25T08:51:27.620Z,16.65
2023-05-25T08:53:56.548Z,16.66
2023-05-25T08:56:27.503Z,16.66
2023-05-25T08:58:58.979Z,16.66
2023-05-25T09:01:29.775Z,16.66
2023-05-25T09:03:57.825Z,16.67
2023-05-25T09:06:26.969Z,16.66
2023-05-25T09:08:54.596Z,16.66
2023-05-25T09:11:36.045Z,16.66
2023-05-25T09:14:07.248Z,16.66
2023-05-25T09:16:38.037Z,16.66
2023-05-25T09:19:05.571Z,16.66
2023-05-25T09:21:33.290Z,16.66
2023-05-25T09:24:00.923Z,16.66
2023-05-25T09:26:28.550Z,16.65
2023-05-25T09:28:56.496Z,16.65
2023-05-25T09:31:24.718Z,16.65
2023-05-25T09:34:00.100Z,16.65
2023-05-25T09:36:28.006Z,16.66
2023-05-25T09:38:56.511Z,16.65
2023-05-25T09:41:27.568Z,16.65
2023-05-25T09:44:06.526Z,16.66
2023-05-25T09:46:39.212Z,16.66
2023-05-25T09:49:09.322Z,16.65
2023-05-25T09:51:37.108Z,16.66
2023-05-25T09:54:05.917Z,16.65
2023-05-25T09:56:33.908Z,16.65
2023-05-25T09:59:01.437Z,16.64
2023-05-25T10:01:29.060Z,16.65
2023-05-25T10:04:04.219Z,16.64
2023-05-25T10:06:39.929Z,16.65
2023-05-25T10:09:07.672Z,16.65
2023-05-25T10:11:36.095Z,16.65
2023-05-25T10:14:06.736Z,16.64
2023-05-25T10:16:35.124Z,16.65
2023-05-25T10:19:05.700Z,16.66
2023-05-25T10:21:34.382Z,16.66
2023-05-25T10:24:05.990Z,16.65
2023-05-25T10:26:36.634Z,16.66
2023-05-25T10:29:05.404Z,16.66
2023-05-25T10:31:34.118Z,16.66
2023-05-25T10:34:02.283Z,16.66
2023-05-25T10:36:30.768Z,16.67
2023-05-25T10:38:58.973Z,16.66
2023-05-25T10:41:27.901Z,16.66
2023-05-25T10:43:55.389Z,16.66
2023-05-25T10:46:23.101Z,16.66
2023-05-25T10:48:51.805Z,16.65
2023-05-25T10:51:20.579Z,16.66
2023-05-25T10:53:49.770Z,16.66
2023-05-25T10:56:17.402Z,16.65
2023-05-25T10:58:47.436Z,16.65
2023-05-25T11:01:16.566Z,16.66
2023-05-25T11:03:57.528Z,16.65
2023-05-25T11:06:45.092Z,16.65
2023-05-25T11:09:24.768Z,16.65
2023-05-25T11:12:03.559Z,16.65
2023-05-25T11:14:33.395Z,16.65
2023-05-25T11:17:08.012Z,16.66
2023-05-25T11:19:47.918Z,16.65
2023-05-25T11:22:20.297Z,16.66
2023-05-25T11:24:47.830Z,16.65
2023-05-25T11:27:15.483Z,16.64
2023-05-25T11:29:44.623Z,16.65
2023-05-25T11:32:16.149Z,16.64
2023-05-25T11:34:46.565Z,16.64
2023-05-25T11:37:17.028Z,16.65
2023-05-25T11:39:47.671Z,16.64
2023-05-25T11:42:16.638Z,16.65
2023-05-25T11:44:46.072Z,16.64
2023-05-25T11:47:14.588Z,16.66
2023-05-25T11:49:44.200Z,16.65
2023-05-25T11:52:11.863Z,16.64
2023-05-25T11:54:41.197Z,16.65
2023-05-25T11:57:14.892Z,16.65
2023-05-25T11:59:48.634Z,16.66
2023-05-25T12:02:17.908Z,16.66
2023-05-25T12:04:53.812Z,16.65
2023-05-25T12:07:21.356Z,16.66
2023-05-25T12:09:48.913Z,16.66
2023-05-25T12:12:16.469Z,16.65
2023-05-25T12:14:47.871Z,16.66
2023-05-25T12:17:17.488Z,16.66
2023-05-25T12:19:45.585Z,16.66
2023-05-25T12:22:13.936Z,16.66
2023-05-25T12:24:41.755Z,16.66
2023-05-25T12:27:17.538Z,16.65
2023-05-25T12:29:46.914Z,16.66
2023-05-25T12:32:14.668Z,16.65
2023-05-25T12:34:44.483Z,16.65
2023-05-25T12:37:18.949Z,16.65
2023-05-25T12:39:46.473Z,16.65
2023-05-25T12:42:15.299Z,16.65
2023-05-25T12:44:43.273Z,16.66
2023-05-25T12:47:11.284Z,16.65
2023-05-25T12:49:39.002Z,16.65
2023-05-25T12:52:08.090Z,16.65
2023-05-25T12:54:36.408Z,16.65
2023-05-25T12:57:05.743Z,16.66
2023-05-25T12:59:33.653Z,16.65
2023-05-25T13:02:01.280Z,16.65
2023-05-25T13:04:28.849Z,16.65
2023-05-25T13:06:56.646Z,16.65
2023-05-25T13:09:26.911Z,16.64
2023-05-25T13:11:55.756Z,16.66
2023-05-25T13:14:23.753Z,16.64
2023-05-25T13:16:51.573Z,16.64
2023-05-25T13:19:19.686Z,16.65
2023-05-25T13:21:49.160Z,16.66
2023-05-25T13:24:17.412Z,16.66
2023-05-25T13:26:48.084Z,16.65
2023-05-25T13:29:16.692Z,16.66
2023-05-25T13:31:44.234Z,16.65
2023-05-25T13:34:11.828Z,16.66
2023-05-25T13:36:39.314Z,16.66
2023-05-25T13:39:07.365Z,16.67
2023-05-25T13:41:34.971Z,16.67
2023-05-25T13:44:04.003Z,16.67
2023-05-25T13:46:35.070Z,16.68
2023-05-25T13:49:03.594Z,16.65
2023-05-25T13:51:31.231Z,16.66
2023-05-25T13:53:58.707Z,16.66
2023-05-25T13:56:26.187Z,16.66
2023-05-25T13:58:53.996Z,16.66
2023-05-25T14:01:22.882Z,16.66
2023-05-25T14:03:50.666Z,16.66
2023-05-25T14:06:18.288Z,16.66
2023-05-25T14:08:45.744Z,16.67
2023-05-25T14:11:13.240Z,16.66
2023-05-25T14:13:40.736Z,16.67
2023-05-25T14:16:08.954Z,16.68
2023-05-25T14:18:37.963Z,16.67
2023-05-25T14:21:05.490Z,16.68
2023-05-25T14:23:33.162Z,16.68
2023-05-25T14:26:00.642Z,16.68
2023-05-25T14:28:28.139Z,16.67
2023-05-25T14:30:56.077Z,16.68
2023-05-25T14:33:23.644Z,16.69
2023-05-25T14:35:52.761Z,16.67
2023-05-25T14:38:20.245Z,16.68
2023-05-25T14:40:48.020Z,16.67
2023-05-25T14:43:15.483Z,16.69
2023-05-25T14:45:43.228Z,16.68
2023-05-25T14:48:16.653Z,16.68
2023-05-25T14:50:45.066Z,16.67
2023-05-25T14:53:13.882Z,16.69
2023-05-25T14:55:41.764Z,16.70
2023-05-25T14:58:09.490Z,16.69
2023-05-25T15:00:37.133Z,16.70
2023-05-25T15:03:04.693Z,16.69
2023-05-25T15:05:32.275Z,16.70
2023-05-25T15:07:59.972Z,16.70
2023-05-25T15:10:29.688Z,16.70
2023-05-25T15:12:57.183Z,16.70
2023-05-25T15:15:24.674Z,16.70
2023-05-25T15:17:52.203Z,16.69
2023-05-25T15:20:19.901Z,16.71
2023-05-25T15:22:47.548Z,16.70
2023-05-25T15:25:19.047Z,16.70
2023-05-25T15:27:53.505Z,16.70
2023-05-25T15:30:21.131Z,16.69
2023-05-25T15:32:48.627Z,16.70
2023-05-25T15:35:16.613Z,16.70
2023-05-25T15:37:44.132Z,16.70
2023-05-25T15:40:12.164Z,16.70
2023-05-25T15:42:39.657Z,16.69
2023-05-25T15:45:09.514Z,16.69
2023-05-25T15:47:37.075Z,16.69
2023-05-25T15:50:04.635Z,16.68
2023-05-25T15:52:32.120Z,16.68
2023-05-25T15:54:59.608Z,16.69
2023-05-25T15:57:27.086Z,16.68
2023-05-25T15:59:54.892Z,16.69
2023-05-25T16:02:23.790Z,16.69
2023-05-25T16:04:51.268Z,16.69
2023-05-25T16:07:18.791Z,16.68
2023-05-25T16:09:46.260Z,16.68
2023-05-25T16:12:13.758Z,16.68
2023-05-25T16:14:41.643Z,16.69
2023-05-25T16:17:09.124Z,16.68
2023-05-25T16:19:37.929Z,16.69
2023-05-25T16:22:05.719Z,16.70
2023-05-25T16:24:33.197Z,16.69
2023-05-25T16:27:00.790Z,16.70
2023-05-25T16:29:28.355Z,16.69
2023-05-25T16:31:56.704Z,16.69
2023-05-25T16:34:24.215Z,16.70
2023-05-25T16:36:53.077Z,16.70
2023-05-25T16:39:20.536Z,16.70
2023-05-25T16:41:50.584Z,16.71
2023-05-25T16:44:18.430Z,16.70
2023-05-25T16:46:45.940Z,16.69
2023-05-25T16:49:13.422Z,16.70
2023-05-25T16:51:40.902Z,16.69
2023-05-25T16:54:09.766Z,16.70
2023-05-25T16:56:37.524Z,16.70
2023-05-25T16:59:05.020Z,16.71
2023-05-25T17:01:32.551Z,16.69
2023-05-25T17:04:00.172Z,16.70
2023-05-25T17:06:27.773Z,16.70
2023-05-25T17:08:55.721Z,16.69
2023-05-25T17:11:26.599Z,16.69
2023-05-25T17:13:54.183Z,16.69
2023-05-25T17:16:21.895Z,16.69
2023-05-25T17:18:49.450Z,16.69
2023-05-25T17:21:16.912Z,16.69
2023-05-25T17:23:44.409Z,16.68
2023-05-25T17:26:11.886Z,16.69
2023-05-25T17:28:40.706Z,16.69
2023-05-25T17:31:09.472Z,16.69
2023-05-25T17:33:38.727Z,16.69
2023-05-25T17:36:06.381Z,16.69
2023-05-25T17:38:36.914Z,16.68
2023-05-25T17:41:04.426Z,16.68
2023-05-25T17:43:31.907Z,16.68
2023-05-25T17:46:00.825Z,16.67
2023-05-25T17:48:28.364Z,16.68
2023-05-25T17:50:55.830Z,16.68
2023-05-25T17:53:23.323Z,16.67
2023-05-25T17:55:50.842Z,16.68
2023-05-25T17:58:18.318Z,16.68
2023-05-25T18:00:45.867Z,16.68
2023-05-25T18:03:14.841Z,16.68
2023-05-25T18:05:42.495Z,16.69
2023-05-25T18:08:10.048Z,16.69
2023-05-25T18:10:37.537Z,16.69
2023-05-25T18:13:05.018Z,16.69
2023-05-25T18:15:32.497Z,16.69
2023-05-25T18:18:00.641Z,16.69
2023-05-25T18:20:29.674Z,16.68
2023-05-25T18:22:57.191Z,16.69
2023-05-25T18:25:24.654Z,16.72
2023-05-25T18:27:52.127Z,17.00
2023-05-25T18:30:19.709Z,17.15
2023-05-25T18:32:47.231Z,17.15
2023-05-25T18:35:15.466Z,17.04
2023-05-25T18:37:44.333Z,16.97
2023-05-25T18:40:12.929Z,16.91
2023-05-25T18:42:40.586Z,16.86
2023-05-25T18:45:08.548Z,16.82
2023-05-25T18:47:36.332Z,16.79
2023-05-25T18:50:04.408Z,16.77
2023-05-25T18:52:31.909Z,16.76
2023-05-25T18:55:01.412Z,16.74
2023-05-25T18:57:29.582Z,16.73
2023-05-25T18:59:57.105Z,16.74
2023-05-25T19:02:24.656Z,16.73
2023-05-25T19:04:52.991Z,16.74
2023-05-25T19:07:20.553Z,16.75
2023-05-25T19:09:48.725Z,16.75
2023-05-25T19:12:17.601Z,16.76
2023-05-25T19:14:45.103Z,16.76
2023-05-25T19:17:12.581Z,16.78
2023-05-25T19:19:40.170Z,16.78
2023-05-25T19:22:07.867Z,16.79
2023-05-25T19:24:35.348Z,16.80
2023-05-25T19:27:02.854Z,16.81
2023-05-25T19:29:31.734Z,16.82
2023-05-25T19:31:59.261Z,16.82
2023-05-25T19:34:27.081Z,16.83
2023-05-25T19:37:07.527Z,16.84
2023-05-25T19:39:38.264Z,16.84
2023-05-25T19:42:06.355Z,16.85
2023-05-25T19:44:35.171Z,16.85
2023-05-25T19:47:02.657Z,16.85
2023-05-25T19:49:30.110Z,16.88
2023-05-25T19:51:57.649Z,16.91
2023-05-25T19:54:25.117Z,16.92
2023-05-25T19:56:52.778Z,16.91
2023-05-25T19:59:21.234Z,16.91
2023-05-25T20:01:50.163Z,16.90
2023-05-25T20:04:17.797Z,16.92
2023-05-25T20:06:45.401Z,16.92
2023-05-25T20:09:14.231Z,16.91
2023-05-25T20:11:41.872Z,16.89
2023-05-25T20:14:09.610Z,16.88
2023-05-25T20:16:37.358Z,16.88
2023-05-25T20:19:07.536Z,16.87
2023-05-25T20:21:36.539Z,16.87
2023-05-25T20:24:04.123Z,16.85
2023-05-25T20:26:31.773Z,16.83
2023-05-25T20:28:59.248Z,16.82
2023-05-25T20:31:26.796Z,16.80
2023-05-25T20:33:54.341Z,16.82
2023-05-25T20:36:23.278Z,16.83
2023-05-25T20:38:50.772Z,16.85
2023-05-25T20:41:18.385Z,16.85
2023-05-25T20:43:45.978Z,16.83
2023-05-25T20:46:14.108Z,16.84
2023-05-25T20:48:41.697Z,16.82
2023-05-25T20:51:11.439Z,16.83
2023-05-25T20:53:40.461Z,16.82
2023-05-25T20:56:07.946Z,16.81
2023-05-25T20:58:37.391Z,16.82
2023-05-25T21:01:05.967Z,16.81
2023-05-25T21:03:33.669Z,16.82
2023-05-25T21:06:01.530Z,16.82
2023-05-25T21:08:29.008Z,16.81
2023-05-25T21:10:57.807Z,16.86
2023-05-25T21:13:25.327Z,16.92
2023-05-25T21:15:52.870Z,16.91
2023-05-25T21:18:20.453Z,16.90
2023-05-25T21:20:47.960Z,16.88
2023-05-25T21:23:15.484Z,16.88
2023-05-25T21:25:43.006Z,16.84
2023-05-25T21:28:11.945Z,16.84
2023-05-25T21:30:39.417Z,16.85
2023-05-25T21:33:06.903Z,16.83
2023-05-25T21:35:34.470Z,16.82
2023-05-25T21:38:01.936Z,16.81
2023-05-25T21:40:29.460Z,16.81
2023-05-25T21:42:56.987Z,16.79
2023-05-25T21:45:25.896Z,16.79
2023-05-25T21:47:53.411Z,16.78
2023-05-25T21:50:20.991Z,16.78
2023-05-25T21:52:48.472Z,16.78
2023-05-25T21:55:15.948Z,16.78
2023-05-25T21:57:43.879Z,16.77
2023-05-25T22:00:12.675Z,16.77
2023-05-25T22:02:41.935Z,16.77
2023-05-25T22:05:09.502Z,16.77
2023-05-25T22:07:36.987Z,16.76
2023-05-25T22:10:04.780Z,16.76
2023-05-25T22:12:32.261Z,16.77
2023-05-25T22:14:59.797Z,16.76
2023-05-25T22:17:27.319Z,16.74
2023-05-25T22:20:07.358Z,16.75
2023-05-25T22:22:36.540Z,16.74
2023-05-25T22:25:04.208Z,16.75
2023-05-25T22:27:31.744Z,16.74
2023-05-25T22:29:59.286Z,16.74
2023-05-25T22:32:27.526Z,16.74
2023-05-25T22:34:56.390Z,16.73
2023-05-25T22:37:23.893Z,16.74
2023-05-25T22:39:51.341Z,16.73
2023-05-25T22:42:18.877Z,16.74
2023-05-25T22:44:46.499Z,16.74
2023-05-25T22:47:14.358Z,16.74
2023-05-25T22:49:43.460Z,16.73
2023-05-25T22:52:13.219Z,16.73
2023-05-25T22:54:40.803Z,16.73
2023-05-25T22:57:09.510Z,16.74
2023-05-25T22:59:37.122Z,16.73
2023-05-25T23:02:04.840Z,16.74
2023-05-25T23:04:32.406Z,16.73
2023-05-25T23:06:59.888Z,16.73
2023-05-25T23:09:28.754Z,16.74
2023-05-25T23:11:56.224Z,16.73
2023-05-25T23:14:23.770Z,16.73
2023-05-25T23:16:51.255Z,16.73
2023-05-25T23:19:19.922Z,16.72
2023-05-25T23:21:48.245Z,16.71
2023-05-25T23:24:15.772Z,16.71
2023-05-25T23:26:44.597Z,16.71
2023-05-25T23:29:12.164Z,16.71
2023-05-25T23:31:39.762Z,16.71
2023-05-25T23:34:07.219Z,16.71
2023-05-25T23:36:34.733Z,16.71
2023-05-25T23:39:02.324Z,16.70
2023-05-25T23:41:29.799Z,16.70
2023-05-25T23:43:58.747Z,16.70
2023-05-25T23:46:26.357Z,16.70
2023-05-25T23:48:53.890Z,16.71
2023-05-25T23:51:21.366Z,16.70
2023-05-25T23:53:48.831Z,16.70
2023-05-25T23:56:16.341Z,16.69
2023-05-25T23:58:43.924Z,16.68
